Latest Coastal Weather Observations for Gladstone

IDQ60701

Issued at 10:25 am EST Saturday 22 November 2014 (issued every 10 minutes, with the page automatically refreshed every 10 minutes)

About coastal observations | Map of coastal stations | Coastal observations for QLD | Marine services | Other Formats
Station Details ID: 039123 Name: GLADSTONE RADAR Lat: -23.86 Lon: 151.26 Height: 74.5 m
Data from the previous 72 hours. | See also: Recent months at Gladstone
Date/Time
EST
Temp

°C
Wind Pressure Rain
since 9am
mm
Weather Cloud Vis
km
Sea
Height
m
Swell
Dir
 
Speed
knots
Gust
knots
hPa Trend Height
m
Period
s
Dir
22/10:00am 33.1 NE 7 12 1015.9 - 0.0 - - - - - - -
22/09:30am 31.6 NE 7 11 1016.0 - 0.0 - - - - - - -
22/09:00am 30.9 NE 5 10 1016.0 - 0.0 - - - - - - -
22/08:30am 27.9 NNW 3 6 1016.1 - 0.0 - - - - - - -
22/08:00am 27.0 NNW 5 9 1016.2 - 0.0 - - - - - - -
22/07:30am 27.0 NNW 4 7 1016.2 - 0.0 - - - - - - -
22/07:00am 26.1 NNW 6 9 1016.0 - 0.0 - - - - - - -
22/06:30am 25.5 NNW 4 6 1015.8 - 0.0 - - - - - - -
22/06:00am 24.4 NNW 5 7 1015.3 - 0.0 - - - - - - -
22/05:30am 24.1 NNW 5 7 1014.9 - 0.0 - - - - - - -
22/05:00am 23.9 N 5 8 1014.4 - 0.0 - - - - - - -
22/04:30am 23.8 N 5 8 1014.0 - 0.0 - - - - - - -
22/04:00am 24.1 NNW 5 7 1013.4 - 0.0 - - - - - - -
22/03:30am 24.3 N 5 8 1013.2 - 0.0 - - - - - - -
22/03:00am 24.3 NNE 4 7 1013.2 - 0.0 - - - - - - -
22/02:30am 24.3 N 5 10 1013.2 - 0.0 - - - - - - -
22/02:00am 24.4 NNE 6 11 1013.1 - 0.0 - - - - - - -
22/01:30am 24.5 NNE 6 9 1013.2 - 0.0 - - - - - - -
22/01:00am 24.5 NNE 5 9 1013.7 - 0.0 - - - - - - -
22/12:30am 24.5 NNE 6 9 1014.0 - 0.0 - - - - - - -
22/12:00am 24.6 NNE 6 9 1014.6 - 0.0 - - - - - - -
 
Date/Time
EST
Temp

°C
Wind Pressure Rain
since 9am
mm
Weather Cloud Vis
km
Sea
Height
m
Swell
Dir
 
Speed
knots
Gust
knots
hPa Trend Height
m
Period
s
Dir
21/11:30pm 24.8 NE 6 9 1014.7 - 0.0 - - - - - - -
21/11:00pm 24.9 NNE 6 11 1014.9 - 0.0 - - - - - - -
21/10:30pm 24.8 NNE 6 11 1014.8 - 0.0 - - - - - - -
21/10:00pm 25.0 NNE 6 9 1014.8 - 0.0 - - - - - - -
21/09:30pm 25.0 NNE 5 10 1014.7 - 0.0 - - - - - - -
21/09:00pm 25.0 NNE 7 11 1014.4 - 0.0 - - - - - - -
21/08:30pm 25.0 NNE 5 10 1014.3 - 0.0 - - - - - - -
21/08:00pm 25.1 NNE 7 12 1014.1 - 0.0 - - - - - - -
21/07:30pm 25.1 NNE 7 12 1013.8 - 0.0 - - - - - - -
21/07:00pm 25.1 NNE 8 15 1013.3 - 0.0 - - - - - - -
21/06:30pm 25.2 NE 7 14 1013.2 - 0.0 - - - - - - -
21/06:00pm 25.6 NE 8 12 1013.1 - 0.0 - - - - - - -
21/05:30pm 25.9 NE 9 14 1012.8 - 0.0 - - - - - - -
21/05:00pm 26.4 NE 10 15 1012.4 - 0.0 - - - - - - -
21/04:30pm 27.6 NE 10 15 1012.4 - 0.0 - - - - - - -
21/04:00pm 28.6 NE 9 15 1012.3 - 0.0 - - - - - - -
21/03:30pm 29.0 NE 10 16 1012.3 - 0.0 - - - - - - -
21/03:00pm 29.8 NE 10 18 1012.4 - 0.0 - - - - - - -
21/02:30pm 29.5 NE 11 18 1012.7 - 0.0 - - - - - - -
21/02:00pm 29.9 NE 11 17 1013.0 - 0.0 - - - - - - -
21/01:30pm 30.9 NE 10 17 1013.3 - 0.0 - - - - - - -
21/01:00pm 30.7 NE 11 20 1013.7 - 0.0 - - - - - - -
21/12:30pm 30.3 NE 12 18 1014.1 - 0.0 - - - - - - -
21/12:00pm 30.1 NE 10 16 1014.7 - 0.0 - - - - - - -
21/11:30am 28.5 NE 8 15 1015.1 - 0.0 - - - - - - -
21/11:00am 29.1 NE 6 12 1015.6 - 0.0 - - - - - - -
21/10:30am 30.1 NE 9 15 1015.8 - 0.0 - - - - - - -
21/10:00am 27.6 NE 7 13 1016.2 - 0.0 - - - - - - -
21/09:30am 26.6 NE 6 10 1016.5 - 0.0 - - - - - - -
21/09:00am 28.8 NE 8 12 1016.5 - - - - - - - - -
21/08:30am 28.2 NE 5 9 1016.7 - - - - - - - - -
21/08:00am 27.7 NNE 6 8 1016.7 - - - - - - - - -
21/07:30am 27.7 NNE 3 9 1016.5 - - - - - - - - -
21/07:00am 25.7 NNE 5 10 1016.1 - - - - - - - - -
21/06:30am 24.8 N 4 7 1015.9 - - - - - - - - -
21/06:00am 24.5 N 4 8 1015.4 - - - - - - - - -
21/05:30am 24.1 N 5 8 1015.3 - - - - - - - - -
21/05:00am 23.7 NNE 5 8 1014.9 - - - - - - - - -
21/04:30am 23.5 NNE 5 8 1014.8 - - - - - - - - -
21/04:00am 23.7 N 4 7 1014.7 - - - - - - - - -
21/03:30am 23.8 N 4 6 1014.6 - - - - - - - - -
21/03:00am 23.7 N 5 8 1014.5 - - - - - - - - -
21/02:30am 23.7 N 4 6 1014.6 - - - - - - - - -
21/02:00am 23.8 NNE 5 9 1014.6 - - - - - - - - -
21/01:30am 23.8 N 4 10 1014.7 - - - - - - - - -
21/01:00am 24.0 NNE 5 10 1014.9 - - - - - - - - -
21/12:30am 24.2 NNE 7 11 1015.1 - - - - - - - - -
21/12:00am 24.4 NNE 6 12 1015.3 - - - - - - - - -
 
Date/Time
EST
Temp

°C
Wind Pressure Rain
since 9am
mm
Weather Cloud Vis
km
Sea
Height
m
Swell
Dir
 
Speed
knots
Gust
knots
hPa Trend Height
m
Period
s
Dir
20/11:30pm 24.6 NNE 6 11 1015.7 - - - - - - - - -
20/11:00pm 24.6 NNE 7 13 1016.2 - - - - - - - - -
20/10:30pm 24.6 NE 6 10 1016.4 - - - - - - - - -
20/10:00pm 24.6 NE 8 11 1016.6 - - - - - - - - -
20/09:30pm 24.6 NE 8 12 1016.6 - - - - - - - - -
20/09:00pm 24.7 NE 8 12 1016.4 - - - - - - - - -
20/08:30pm 24.7 NE 8 13 1016.1 - - - - - - - - -
20/08:00pm 24.8 ENE 9 14 1015.9 - - - - - - - - -
20/07:30pm 24.9 NE 9 14 1015.6 - - - - - - - - -
20/07:00pm 25.2 NE 8 14 1015.3 - - - - - - - - -
20/06:30pm 25.4 NE 9 16 1014.8 - - - - - - - - -
20/06:00pm 25.6 NE 10 14 1014.4 - - - - - - - - -
20/05:30pm 26.1 NE 9 14 1014.2 - - - - - - - - -
20/05:00pm 26.3 NE 9 14 1013.8 - - - - - - - - -
20/04:30pm 27.5 NE 9 13 1013.5 - - - - - - - - -
20/04:00pm 28.3 NE 9 13 1013.4 - - - - - - - - -
20/03:30pm 28.0 ENE 9 13 1013.5 - - - - - - - - -
20/03:00pm 29.5 ENE 10 15 1013.7 - - - - - - - - -
20/02:30pm 29.2 ENE 8 14 1013.9 - - - - - - - - -
20/02:00pm 29.2 ENE 9 14 1014.1 - - - - - - - - -
20/01:30pm 28.3 NE 9 13 1014.7 - - - - - - - - -
20/01:00pm 29.3 NE 8 14 1015.1 - - - - - - - - -
20/09:30am 27.3 NE 7 13 1017.2 - 0.0 - - - - - - -
20/09:00am 29.9 NE 10 15 1017.3 - 16.4 - - - - - - -
20/08:30am 28.8 NE 8 13 1017.2 - 16.4 - - - - - - -
20/08:00am 27.9 NE 8 12 1017.2 - 16.4 - - - - - - -
20/07:30am 27.2 NE 6 12 1016.8 - 16.4 - - - - - - -
20/07:00am 26.1 NE 6 9 1016.5 - 16.4 - - - - - - -
20/06:30am 24.6 NNE 5 8 1016.3 - 16.4 - - - - - - -
20/06:00am 23.9 NNE 5 8 1015.8 - 16.4 - - - - - - -
20/05:30am 23.4 NNE 4 8 1015.3 - 16.4 - - - - - - -
20/05:00am 23.1 NNE 6 9 1014.9 - 16.4 - - - - - - -
20/04:30am 23.4 NNE 5 7 1014.6 - 16.4 - - - - - - -
20/04:00am 23.1 NNE 7 12 1014.4 - 16.4 - - - - - - -
20/03:30am 22.9 NE 8 12 1014.5 - 16.4 - - - - - - -
20/03:00am 23.1 NE 9 13 1014.6 - 16.4 - - - - - - -
20/02:30am 23.3 NE 10 16 1013.9 - 16.4 - - - - - - -
20/02:00am 23.2 NNE 5 8 1015.5 - 16.4 - - - - - - -
20/01:30am 23.5 NNE 6 13 1015.9 - 16.2 - - - - - - -
20/01:00am 23.4 NNE 7 13 1016.2 - 15.8 - - - - - - -
20/12:30am 23.4 NE 11 17 1015.7 - 15.4 - - - - - - -
20/12:00am 23.3 N 5 7 1016.2 - 14.6 - - - - - - -
 
Date/Time
EST
Temp

°C
Wind Pressure Rain
since 9am
mm
Weather Cloud Vis
km
Sea
Height
m
Swell
Dir
 
Speed
knots
Gust
knots
hPa Trend Height
m
Period
s
Dir
19/11:30pm 22.9 W 4 8 1016.8 - 13.8 - - - - - - -
19/11:00pm 23.2 WSW 4 6 1017.3 - 13.0 - - - - - - -
19/10:30pm 23.1 W 5 8 1017.4 - 12.4 - - - - - - -
19/10:00pm 23.1 N 4 6 1017.5 - 11.8 - - - - - - -
19/09:30pm 23.1 WSW 4 5 1018.2 - 11.2 - - - - - - -
19/09:00pm 22.9 NNE 6 9 1017.8 - 10.4 Rain - - - - - -
19/08:30pm 22.7 NNE 7 9 1017.6 - 9.4 - - - - - - -
19/08:00pm 22.0 SE 9 14 1018.0 - 5.4 - - - - - - -
19/07:30pm 22.6 SE 11 17 1017.1 - 0.0 - - - - - - -
19/07:00pm 23.7 ESE 11 17 1016.1 - 0.0 - - - - - - -
19/06:30pm 25.9 ENE 11 16 1015.8 - 0.0 - - - - - - -
19/06:00pm 26.0 NE 6 11 1015.1 - 0.0 - - - - - - -
19/05:30pm 26.0 NE 8 15 1014.1 - 0.0 - - - - - - -
19/05:00pm 26.3 NNE 9 16 1013.1 - 0.0 - - - - - - -
19/04:30pm 27.3 NNE 9 16 1012.4 - 0.0 - - - - - - -
19/04:00pm 27.1 NNE 11 18 1011.7 - 0.0 - - - - - - -
19/03:30pm 28.3 NNE 13 21 1011.4 - 0.0 - - - - - - -
19/03:00pm 30.4 NNE 10 18 1012.1 - 0.0 - - - - - - -
19/02:30pm 30.4 NNE 11 19 1012.8 - 0.0 - - - - - - -
19/02:00pm 29.3 NNE 11 21 1013.4 - 0.0 - - - - - - -
19/01:30pm 29.1 NNE 11 19 1013.9 - 0.0 - - - - - - -
19/01:00pm 30.9 NNE 8 16 1014.3 - 0.0 - - - - - - -
19/12:30pm 30.7 NNE 11 18 1014.6 - 0.0 - - - - - - -
19/12:00pm 31.4 NNE 11 19 1014.8 - 0.0 - - - - - - -
19/11:30am 32.4 NNE 9 15 1015.2 - 0.0 - - - - - - -
19/11:00am 32.2 N 8 12 1015.8 - 0.0 - - - - - - -
19/10:30am 31.3 N 7 12 1016.1 - 0.0 - - - - - - -

Other Formats:

Comma delimited format used in spreadsheet applications
http://www.bom.gov.au/fwo/IDQ60701/IDQ60701.94380.axf

JavaScript Object Notation format (JSON) in row-major order
http://www.bom.gov.au/fwo/IDQ60701/IDQ60701.94380.json